createdAt,value
2022-11-23T00:01:20.078Z,5.43
2022-11-23T00:04:22.492Z,5.47
2022-11-23T00:07:24.788Z,3.92
2022-11-23T00:10:26.801Z,3.75
2022-11-23T00:13:29.238Z,4.25
2022-11-23T00:16:31.378Z,4.60
2022-11-23T00:19:33.550Z,5.55
2022-11-23T00:22:35.897Z,6.85
2022-11-23T00:25:38.491Z,5.05
2022-11-23T00:28:40.507Z,4.57
2022-11-23T00:31:43.996Z,3.38
2022-11-23T00:34:46.016Z,4.10
2022-11-23T00:37:48.312Z,4.35
2022-11-23T00:40:50.265Z,4.50
2022-11-23T00:43:52.854Z,5.47
2022-11-23T00:46:54.802Z,3.92
2022-11-23T00:49:56.864Z,4.88
2022-11-23T00:52:58.826Z,7.05
2022-11-23T00:56:00.841Z,5.43
2022-11-23T00:59:04.048Z,7.65
2022-11-23T01:02:07.486Z,6.40
2022-11-23T01:05:09.621Z,6.47
2022-11-23T01:08:11.785Z,4.68
2022-11-23T01:11:13.805Z,6.60
2022-11-23T01:14:16.032Z,3.13
2022-11-23T01:17:18.134Z,3.30
2022-11-23T01:20:20.205Z,6.88
2022-11-23T01:23:22.289Z,3.95
2022-11-23T01:26:24.723Z,4.95
2022-11-23T01:29:33.929Z,6.97
2022-11-23T01:32:36.741Z,4.57
2022-11-23T01:35:38.699Z,4.40
2022-11-23T01:38:42.334Z,2.95
2022-11-23T01:41:45.737Z,7.30
2022-11-23T01:44:48.669Z,3.17
2022-11-23T01:47:50.834Z,3.90
2022-11-23T01:50:54.120Z,3.67
2022-11-23T01:54:00.889Z,4.75
2022-11-23T01:57:11.025Z,5.20
2022-11-23T02:00:13.593Z,4.10
2022-11-23T02:03:15.734Z,3.13
2022-11-23T02:06:20.061Z,4.57
2022-11-23T02:09:23.178Z,4.18
2022-11-23T02:12:26.311Z,2.78
2022-11-23T02:15:28.526Z,7.78
2022-11-23T02:18:33.105Z,4.70
2022-11-23T02:21:35.292Z,3.60
2022-11-23T02:24:49.959Z,5.63
2022-11-23T02:27:53.711Z,7.72
2022-11-23T02:30:56.336Z,7.47
2022-11-23T02:33:59.131Z,9.38
2022-11-23T02:37:04.071Z,4.45
2022-11-23T02:40:20.939Z,4.43
2022-11-23T02:43:23.471Z,6.97
2022-11-23T02:46:27.818Z,4.75
2022-11-23T02:49:29.991Z,4.68
2022-11-23T02:52:32.335Z,6.00
2022-11-23T02:55:34.471Z,3.30
2022-11-23T02:58:37.054Z,6.65
2022-11-23T03:01:42.032Z,4.30
2022-11-23T03:04:44.167Z,6.00
2022-11-23T03:07:46.735Z,7.93
2022-11-23T03:10:48.749Z,3.17
2022-11-23T03:13:51.022Z,3.58
2022-11-23T03:16:55.471Z,6.15
2022-11-23T03:19:58.909Z,5.68
2022-11-23T03:23:01.624Z,4.45
2022-11-23T03:26:07.334Z,4.57
2022-11-23T03:29:18.986Z,3.70
2022-11-23T03:32:22.059Z,3.58
2022-11-23T03:35:28.335Z,4.45
2022-11-23T03:38:51.452Z,5.05
2022-11-23T03:42:13.550Z,7.18
2022-11-23T03:45:15.654Z,5.28
2022-11-23T03:48:17.848Z,4.95
2022-11-23T03:51:21.933Z,4.55
2022-11-23T03:54:24.330Z,4.28
2022-11-23T03:57:26.451Z,4.63
2022-11-23T04:03:34.246Z,4.90
2022-11-23T04:06:42.291Z,3.75
2022-11-23T04:09:51.706Z,3.38
2022-11-23T04:13:16.781Z,4.15
2022-11-23T04:16:19.030Z,7.05
2022-11-23T04:19:21.196Z,6.82
2022-11-23T04:22:23.249Z,5.25
2022-11-23T04:25:25.352Z,6.93
2022-11-23T04:28:27.630Z,3.40
2022-11-23T04:31:29.775Z,5.07
2022-11-23T04:37:48.919Z,4.30
2022-11-23T04:44:18.855Z,4.63
2022-11-23T04:47:21.475Z,4.70
2022-11-23T04:50:24.813Z,5.10
2022-11-23T04:53:31.707Z,4.15
2022-11-23T04:56:35.154Z,4.28
2022-11-23T04:59:37.192Z,5.55
2022-11-23T05:02:40.791Z,4.78
2022-11-23T05:05:54.288Z,4.10
2022-11-23T05:08:56.634Z,5.75
2022-11-23T05:12:18.540Z,5.32
2022-11-23T05:15:22.280Z,6.35
2022-11-23T05:18:24.577Z,3.88
2022-11-23T05:21:26.874Z,3.60
2022-11-23T05:24:30.521Z,3.47
2022-11-23T05:27:42.014Z,6.35
2022-11-23T05:30:44.923Z,8.80
2022-11-23T05:33:47.434Z,3.95
2022-11-23T05:36:53.519Z,5.88
2022-11-23T05:39:55.525Z,4.50
2022-11-23T05:43:00.010Z,3.78
2022-11-23T05:46:02.821Z,10.70
2022-11-23T05:49:10.387Z,5.88
2022-11-23T05:52:14.281Z,4.72
2022-11-23T05:55:16.433Z,3.55
2022-11-23T05:58:19.155Z,5.00
2022-11-23T06:01:22.270Z,5.85
2022-11-23T06:04:25.706Z,5.35
2022-11-23T06:07:28.145Z,3.80
2022-11-23T06:10:48.932Z,3.72
2022-11-23T06:13:51.176Z,4.50
2022-11-23T06:16:53.473Z,5.90
2022-11-23T06:20:08.854Z,5.55
2022-11-23T06:23:15.722Z,5.82
2022-11-23T06:26:20.371Z,9.82
2022-11-23T06:29:23.754Z,9.57
2022-11-23T06:32:28.030Z,5.95
2022-11-23T06:35:32.189Z,5.40
2022-11-23T06:38:35.376Z,7.53
2022-11-23T06:41:42.763Z,5.35
2022-11-23T06:44:47.332Z,5.13
2022-11-23T06:50:52.997Z,6.07
2022-11-23T06:53:57.324Z,6.22
2022-11-23T06:57:00.644Z,6.13
2022-11-23T07:00:03.420Z,5.07
2022-11-23T07:03:20.353Z,5.75
2022-11-23T07:06:24.850Z,5.68
2022-11-23T07:09:30.119Z,6.22
2022-11-23T07:12:53.910Z,4.15
2022-11-23T07:15:58.642Z,5.50
2022-11-23T07:19:02.184Z,5.18
2022-11-23T07:22:04.351Z,4.53
2022-11-23T07:25:07.096Z,4.05
2022-11-23T07:28:11.838Z,5.15
2022-11-23T07:31:13.864Z,3.78
2022-11-23T07:34:15.732Z,4.88
2022-11-23T07:37:18.770Z,6.07
2022-11-23T07:40:20.781Z,6.90
2022-11-23T07:43:22.710Z,6.47
2022-11-23T07:46:25.336Z,4.68
2022-11-23T07:49:27.229Z,4.68
2022-11-23T07:52:29.217Z,6.05
2022-11-23T07:55:31.575Z,4.35
2022-11-23T07:58:33.533Z,5.32
2022-11-23T08:01:35.459Z,4.15
2022-11-23T08:04:37.305Z,4.82
2022-11-23T08:07:39.423Z,5.28
2022-11-23T08:10:46.105Z,5.20
2022-11-23T08:13:50.458Z,5.63
2022-11-23T08:16:52.565Z,8.65
2022-11-23T08:19:57.555Z,4.57
2022-11-23T08:22:59.615Z,6.38
2022-11-23T08:26:06.697Z,8.45
2022-11-23T08:29:12.327Z,5.10
2022-11-23T08:32:14.366Z,12.23
2022-11-23T08:35:16.373Z,13.10
2022-11-23T08:38:18.411Z,16.13
2022-11-23T08:41:20.988Z,23.55
2022-11-23T08:44:22.929Z,16.02
2022-11-23T08:47:24.796Z,14.77
2022-11-23T08:50:26.946Z,12.45
2022-11-23T08:53:28.811Z,7.75
2022-11-23T08:56:30.702Z,5.82
2022-11-23T08:59:32.590Z,6.60
2022-11-23T09:02:34.609Z,10.10
2022-11-23T09:05:39.740Z,14.07
2022-11-23T09:08:41.666Z,13.50
2022-11-23T09:11:43.508Z,6.75
2022-11-23T09:14:48.034Z,10.07
2022-11-23T09:17:49.956Z,5.97
2022-11-23T09:20:52.027Z,7.22
2022-11-23T09:23:53.927Z,7.95
2022-11-23T09:26:56.643Z,9.32
2022-11-23T09:29:58.757Z,7.18
2022-11-23T09:33:00.703Z,8.35
2022-11-23T09:36:04.289Z,6.80
2022-11-23T09:39:06.178Z,6.13
2022-11-23T09:42:24.573Z,6.40
2022-11-23T09:45:49.541Z,6.45
2022-11-23T09:48:57.547Z,5.13
2022-11-23T09:51:59.600Z,6.72
2022-11-23T09:55:07.307Z,8.98
2022-11-23T09:58:15.245Z,9.60
2022-11-23T10:01:17.337Z,6.68
2022-11-23T10:04:20.635Z,6.55
2022-11-23T10:07:22.715Z,4.78
2022-11-23T10:10:44.577Z,6.80
2022-11-23T10:14:01.837Z,7.40
2022-11-23T10:17:12.046Z,5.32
2022-11-23T10:20:19.974Z,4.35
2022-11-23T10:23:44.556Z,6.30
2022-11-23T10:26:49.582Z,5.05
2022-11-23T10:29:51.805Z,5.82
2022-11-23T10:33:09.379Z,6.72
2022-11-23T10:36:11.783Z,3.83
2022-11-23T10:39:22.475Z,6.20
2022-11-23T10:42:47.246Z,4.60
2022-11-23T10:45:49.239Z,5.07
2022-11-23T10:48:54.248Z,5.03
2022-11-23T10:52:05.333Z,5.20
2022-11-23T10:55:07.397Z,4.43
2022-11-23T10:58:26.728Z,6.78
2022-11-23T11:01:29.239Z,5.82
2022-11-23T11:04:31.639Z,4.20
2022-11-23T11:07:37.146Z,4.93
2022-11-23T11:10:44.262Z,5.50
2022-11-23T11:13:47.789Z,7.35
2022-11-23T11:16:58.486Z,5.55
2022-11-23T11:20:32.881Z,6.45
2022-11-23T11:23:38.696Z,5.38
2022-11-23T11:26:49.866Z,5.43
2022-11-23T11:29:54.576Z,5.10
2022-11-23T11:33:19.992Z,5.43
2022-11-23T11:36:24.155Z,5.80
2022-11-23T11:39:35.785Z,4.60
2022-11-23T11:42:44.012Z,4.25
2022-11-23T11:46:21.264Z,4.07
2022-11-23T11:49:35.269Z,4.80
2022-11-23T12:03:47.899Z,6.78
2022-11-23T12:07:14.393Z,5.03
2022-11-23T12:10:23.670Z,6.47
2022-11-23T12:13:34.748Z,5.60
2022-11-23T12:17:17.378Z,4.22
2022-11-23T12:20:30.992Z,5.70
2022-11-23T12:24:06.976Z,9.27
2022-11-23T12:27:42.116Z,6.63
2022-11-23T12:31:25.166Z,3.08
2022-11-23T12:34:42.056Z,5.82
2022-11-23T12:38:02.604Z,5.07
2022-11-23T12:44:34.200Z,6.50
2022-11-23T12:48:16.862Z,5.25
2022-11-23T12:51:23.951Z,4.93
2022-11-23T12:54:56.189Z,5.25
2022-11-23T12:58:17.195Z,4.35
2022-11-23T13:01:31.105Z,5.35
2022-11-23T13:04:54.668Z,7.20
2022-11-23T13:08:21.974Z,4.00
2022-11-23T13:11:35.863Z,5.03
2022-11-23T13:14:48.699Z,3.75
2022-11-23T13:18:12.010Z,5.57
2022-11-23T13:21:23.420Z,3.10
2022-11-23T13:24:34.232Z,6.97
2022-11-23T13:28:16.610Z,8.48
2022-11-23T13:31:21.786Z,4.45
2022-11-23T13:34:43.690Z,5.90
2022-11-23T13:37:57.479Z,4.40
2022-11-23T13:41:00.308Z,6.03
2022-11-23T13:47:20.541Z,6.15
2022-11-23T13:50:26.447Z,4.55
2022-11-23T13:53:35.707Z,5.18
2022-11-23T13:56:41.213Z,3.88
2022-11-23T13:59:43.160Z,8.52
2022-11-23T14:02:45.127Z,6.03
2022-11-23T14:05:50.082Z,5.53
2022-11-23T14:09:14.590Z,6.07
2022-11-23T14:12:19.487Z,2.60
2022-11-23T14:15:30.956Z,4.57
2022-11-23T14:18:38.788Z,2.13
2022-11-23T14:22:12.731Z,2.67
2022-11-23T14:25:45.330Z,2.22
2022-11-23T14:28:59.373Z,2.13
2022-11-23T14:32:34.944Z,1.67
2022-11-23T14:35:52.280Z,3.75
2022-11-23T14:39:34.590Z,3.17
2022-11-23T14:42:43.833Z,2.25
2022-11-23T14:45:47.560Z,3.53
2022-11-23T14:48:49.988Z,2.78
2022-11-23T14:51:52.159Z,3.45
2022-11-23T14:54:56.457Z,3.03
2022-11-23T14:58:02.663Z,3.17
2022-11-23T15:01:19.457Z,3.20
2022-11-23T15:04:33.494Z,3.58
2022-11-23T15:07:47.115Z,2.22
2022-11-23T15:11:03.371Z,2.58
2022-11-23T15:14:18.848Z,3.80
2022-11-23T15:17:22.175Z,3.33
2022-11-23T15:20:29.609Z,3.85
2022-11-23T15:23:38.493Z,4.40
2022-11-23T15:26:48.670Z,3.53
2022-11-23T15:29:59.624Z,5.13
2022-11-23T15:33:03.435Z,3.20
2022-11-23T15:36:07.785Z,4.30
2022-11-23T15:39:21.345Z,6.30
2022-11-23T15:42:25.803Z,3.90
2022-11-23T15:45:46.056Z,5.82
2022-11-23T15:48:49.755Z,3.55
2022-11-23T15:51:52.241Z,4.95
2022-11-23T15:54:56.354Z,4.35
2022-11-23T15:57:59.814Z,4.00
2022-11-23T16:01:27.828Z,4.38
2022-11-23T16:04:36.401Z,3.85
2022-11-23T16:08:01.130Z,3.47
2022-11-23T16:11:03.532Z,5.57
2022-11-23T16:14:16.312Z,4.93
2022-11-23T16:17:21.890Z,4.28
2022-11-23T16:20:25.609Z,8.32
2022-11-23T16:23:56.041Z,8.10
2022-11-23T16:26:58.052Z,6.50
2022-11-23T16:30:03.365Z,7.28
2022-11-23T16:33:06.440Z,5.93
2022-11-23T16:36:08.551Z,6.70
2022-11-23T16:39:10.517Z,5.18
2022-11-23T16:42:16.833Z,5.90
2022-11-23T16:45:18.804Z,4.78
2022-11-23T16:48:26.504Z,6.43
2022-11-23T16:51:28.493Z,5.38
2022-11-23T16:54:30.400Z,6.45
2022-11-23T16:57:35.250Z,5.60
2022-11-23T17:00:37.241Z,7.10
2022-11-23T17:03:39.292Z,5.15
2022-11-23T17:06:41.169Z,5.72
2022-11-23T17:09:43.126Z,5.95
2022-11-23T17:12:54.012Z,5.32
2022-11-23T17:15:56.280Z,6.55
2022-11-23T17:18:58.111Z,7.78
2022-11-23T17:22:00.081Z,5.25
2022-11-23T17:25:02.041Z,4.78
2022-11-23T17:28:06.135Z,5.18
2022-11-23T17:31:10.326Z,5.10
2022-11-23T17:34:13.319Z,5.97
2022-11-23T17:37:18.754Z,6.80
2022-11-23T17:40:22.251Z,5.03
2022-11-23T17:43:24.099Z,7.30
2022-11-23T17:46:27.973Z,5.63
2022-11-23T17:49:30.452Z,6.25
2022-11-23T17:52:33.166Z,5.55
2022-11-23T17:55:35.261Z,5.90
2022-11-23T17:58:39.662Z,6.82
2022-11-23T18:01:41.613Z,4.35
2022-11-23T18:04:43.577Z,6.93
2022-11-23T18:07:45.529Z,4.95
2022-11-23T18:10:47.486Z,6.03
2022-11-23T18:13:50.039Z,4.75
2022-11-23T18:16:51.911Z,4.38
2022-11-23T18:19:53.925Z,6.13
2022-11-23T18:22:55.857Z,4.18
2022-11-23T18:26:05.200Z,5.47
2022-11-23T18:29:07.449Z,4.82
2022-11-23T18:32:09.393Z,5.93
2022-11-23T18:35:11.349Z,5.65
2022-11-23T18:38:13.865Z,4.63
2022-11-23T18:41:18.364Z,6.18
2022-11-23T18:44:20.437Z,8.02
2022-11-23T18:47:22.332Z,4.63
2022-11-23T18:50:24.257Z,4.78
2022-11-23T18:53:26.133Z,5.03
2022-11-23T18:56:28.024Z,4.93
2022-11-23T18:59:58.642Z,5.03
2022-11-23T19:02:53.728Z,5.78
2022-11-23T19:06:01.670Z,5.15
2022-11-23T19:09:03.620Z,5.10
2022-11-23T19:12:07.908Z,4.45
2022-11-23T19:15:11.223Z,5.07
2022-11-23T19:18:13.203Z,5.57
2022-11-23T19:21:17.571Z,4.78
2022-11-23T19:24:19.560Z,5.50
2022-11-23T19:27:21.474Z,5.22
2022-11-23T19:30:23.464Z,7.25
2022-11-23T19:33:25.339Z,5.10
2022-11-23T19:36:29.243Z,5.68
2022-11-23T19:39:31.233Z,7.75
2022-11-23T19:42:35.255Z,5.93
2022-11-23T19:45:37.114Z,5.20
2022-11-23T19:48:39.491Z,7.30
2022-11-23T19:51:41.403Z,7.05
2022-11-23T19:54:43.329Z,7.18
2022-11-23T19:57:45.243Z,5.88
2022-11-23T20:00:47.200Z,6.53
2022-11-23T20:03:51.733Z,6.93
2022-11-23T20:06:53.627Z,6.57
2022-11-23T20:09:55.550Z,6.35
2022-11-23T20:12:57.455Z,6.95
2022-11-23T20:16:20.036Z,7.03
2022-11-23T20:19:22.113Z,6.03
2022-11-23T20:22:24.032Z,6.68
2022-11-23T20:25:28.189Z,9.63
2022-11-23T20:28:30.144Z,6.88
2022-11-23T20:31:33.025Z,5.25
2022-11-23T20:34:35.123Z,9.75
2022-11-23T20:37:37.246Z,7.88
2022-11-23T20:40:39.416Z,7.80
2022-11-23T20:43:41.726Z,9.18
2022-11-23T20:50:06.843Z,5.28
2022-11-23T20:53:08.715Z,6.93
2022-11-23T20:56:12.469Z,7.43
2022-11-23T20:59:14.625Z,5.45
2022-11-23T21:02:16.832Z,8.88
2022-11-23T21:05:19.781Z,8.85
2022-11-23T21:08:27.886Z,6.05
2022-11-23T21:11:32.223Z,6.05
2022-11-23T21:14:34.529Z,6.80
2022-11-23T21:17:36.518Z,8.45
2022-11-23T21:20:38.440Z,8.82
2022-11-23T21:23:40.368Z,8.40
2022-11-23T21:26:42.463Z,11.20
2022-11-23T21:29:44.390Z,10.60
2022-11-23T21:32:50.032Z,6.03
2022-11-23T21:35:51.999Z,10.55
2022-11-23T21:38:53.822Z,10.30
2022-11-23T21:41:55.802Z,7.15
2022-11-23T21:44:57.757Z,4.35
2022-11-23T21:48:01.936Z,5.95
2022-11-23T21:51:07.006Z,7.15
2022-11-23T21:54:09.435Z,9.18
2022-11-23T21:57:11.337Z,7.90
2022-11-23T22:00:13.527Z,8.32
2022-11-23T22:03:15.418Z,11.50
2022-11-23T22:06:20.702Z,9.80
2022-11-23T22:09:22.813Z,10.05
2022-11-23T22:12:24.778Z,8.45
2022-11-23T22:15:26.953Z,7.38
2022-11-23T22:18:29.951Z,9.73
2022-11-23T22:21:37.017Z,9.93
2022-11-23T22:24:38.945Z,7.57
2022-11-23T22:27:40.852Z,8.13
2022-11-23T22:30:42.737Z,10.43
2022-11-23T22:33:44.897Z,9.80
2022-11-23T22:36:49.567Z,9.93
2022-11-23T22:39:51.424Z,9.45
2022-11-23T22:42:53.296Z,7.60
2022-11-23T22:45:55.317Z,6.00
2022-11-23T22:48:57.367Z,8.05
2022-11-23T22:51:59.349Z,7.28
2022-11-23T22:55:01.361Z,8.98
2022-11-23T22:58:03.208Z,6.78
2022-11-23T23:01:07.901Z,8.75
2022-11-23T23:04:09.838Z,5.63
2022-11-23T23:07:11.691Z,10.32
2022-11-23T23:10:16.941Z,9.55
2022-11-23T23:13:20.210Z,9.63
2022-11-23T23:16:22.693Z,5.85
2022-11-23T23:19:24.756Z,9.73
2022-11-23T23:22:26.726Z,10.82
2022-11-23T23:25:28.603Z,12.32
2022-11-23T23:28:30.477Z,8.27
2022-11-23T23:31:32.389Z,10.40
2022-11-23T23:34:34.611Z,8.13
2022-11-23T23:37:37.084Z,9.30
2022-11-23T23:40:38.964Z,10.80
2022-11-23T23:43:41.505Z,6.75
2022-11-23T23:46:43.399Z,11.05
2022-11-23T23:49:45.298Z,9.27
2022-11-23T23:52:47.161Z,9.52
2022-11-23T23:55:59.693Z,8.63
2022-11-23T23:59:01.594Z,7.60
